createdAt,value
2022-08-20T03:59:03.744Z,98628.91
2022-08-20T04:37:19.382Z,98675.44
2022-08-20T04:40:14.511Z,98662.22
2022-08-20T04:42:45.274Z,98667.03
2022-08-20T04:45:17.354Z,98669.34
2022-08-20T04:50:47.685Z,98662.53
2022-08-20T07:02:53.857Z,98703.91
2022-08-20T07:05:21.107Z,98697.13
2022-08-20T07:07:49.717Z,98694.94
2022-08-20T07:10:17.586Z,98689.22
2022-08-20T07:12:44.815Z,98688.69
2022-08-20T07:15:12.262Z,98689.94
2022-08-20T07:17:44.525Z,98699.19
2022-08-20T07:20:13.356Z,98707.59
2022-08-20T07:22:47.941Z,98698.53
2022-08-20T07:25:17.899Z,98696.53
2022-08-20T07:27:47.454Z,98698.72
2022-08-20T07:30:55.801Z,98707.88
2022-08-20T07:33:24.896Z,98709.66
2022-08-20T08:07:05.557Z,98686.38
2022-08-20T08:09:44.590Z,98668.44
2022-08-20T08:12:18.496Z,98672.22
2022-08-20T08:15:00.114Z,98671.75
2022-08-20T08:17:28.253Z,98667.28
2022-08-20T08:20:00.199Z,98685.19
2022-08-20T08:22:31.957Z,98681.09
2022-08-20T08:25:02.396Z,98682.41
2022-08-20T08:54:17.920Z,98660.50
2022-08-20T10:02:53.282Z,98700.56
2022-08-20T10:05:20.922Z,98687.47
2022-08-20T10:07:54.975Z,98693.03
2022-08-20T10:10:36.296Z,98691.09
2022-08-20T10:13:12.688Z,98677.41
2022-08-20T10:22:21.390Z,98666.16
2022-08-20T11:51:21.132Z,98740.00
2022-08-20T11:53:49.605Z,98733.44
2022-08-20T11:56:28.446Z,98753.22
2022-08-20T11:59:03.944Z,98752.03
2022-08-20T12:01:36.771Z,98767.84
2022-08-20T12:04:07.428Z,98758.72
2022-08-20T12:16:05.874Z,98801.28
2022-08-20T12:18:33.680Z,98798.41
2022-08-20T12:21:02.748Z,98790.97
2022-08-20T12:23:31.046Z,98791.31
2022-08-20T12:25:59.296Z,98803.19
2022-08-20T12:28:26.555Z,98787.41
2022-08-20T12:31:02.631Z,98785.22
2022-08-20T12:33:29.736Z,98774.72
2022-08-20T12:35:57.541Z,98771.72
2022-08-20T12:38:27.885Z,98758.16
2022-08-20T12:47:37.409Z,98738.59
2022-08-20T12:50:18.964Z,98730.56
2022-08-20T12:52:46.182Z,98730.06
2022-08-20T12:55:17.623Z,98718.09
2022-08-20T12:57:53.219Z,98713.16
2022-08-20T13:03:23.070Z,98679.00
2022-08-20T13:05:52.466Z,98684.28
2022-08-20T13:08:30.012Z,98670.84
2022-08-20T13:10:59.866Z,98666.72
2022-08-20T13:13:28.776Z,98653.66
2022-08-20T13:15:58.297Z,98652.09
2022-08-20T13:49:32.762Z,98685.38
2022-08-20T13:52:09.656Z,98676.31
2022-08-20T13:54:54.331Z,98666.50
2022-08-20T13:57:34.134Z,98668.28
2022-08-20T14:00:12.318Z,98680.59
2022-08-20T14:02:40.921Z,98682.19
2022-08-20T14:05:12.193Z,98690.91
2022-08-20T14:07:44.688Z,98688.41
2022-08-20T14:10:32.415Z,98685.63
2022-08-20T14:13:01.159Z,98676.19
2022-08-20T14:15:31.292Z,98682.53
2022-08-20T14:18:06.508Z,98679.06
2022-08-20T14:20:34.239Z,98681.94
2022-08-20T14:23:09.497Z,98680.22
2022-08-20T14:25:49.124Z,98670.78
2022-08-20T14:31:10.886Z,98668.50
2022-08-20T14:33:43.927Z,98674.75
2022-08-20T14:36:13.973Z,98685.16
2022-08-20T14:38:48.958Z,98673.28
2022-08-20T14:41:29.845Z,98679.41
2022-08-20T14:47:21.378Z,98671.97
2022-08-20T15:05:46.838Z,98670.03
